createdAt,value
2018-03-20T00:00:26.973Z,1009.92
2018-03-20T00:01:26.940Z,1009.93
2018-03-20T00:02:26.927Z,1009.90
2018-03-20T00:03:26.902Z,1009.87
2018-03-20T00:04:26.859Z,1009.87
2018-03-20T00:05:26.837Z,1009.85
2018-03-20T00:06:26.826Z,1009.83
2018-03-20T00:07:26.776Z,1009.86
2018-03-20T00:08:26.758Z,1009.87
2018-03-20T00:09:26.734Z,1009.88
2018-03-20T00:10:26.696Z,1009.92
2018-03-20T00:11:26.672Z,1009.89
2018-03-20T00:12:26.641Z,1009.85
2018-03-20T00:13:26.630Z,1009.92
2018-03-20T00:14:26.586Z,1009.92
2018-03-20T00:15:26.572Z,1009.97
2018-03-20T00:16:26.567Z,1010.01
2018-03-20T00:17:26.506Z,1010.00
2018-03-20T00:18:26.475Z,1010.02
2018-03-20T00:19:26.468Z,1009.93
2018-03-20T00:20:26.432Z,1009.97
2018-03-20T00:21:26.399Z,1009.99
2018-03-20T00:22:26.377Z,1009.96
2018-03-20T00:23:26.340Z,1010.00
2018-03-20T00:24:26.317Z,1009.99
2018-03-20T00:25:26.302Z,1009.97
2018-03-20T00:26:26.261Z,1009.94
2018-03-20T00:27:26.242Z,1009.94
2018-03-20T00:28:26.205Z,1009.97
2018-03-20T00:29:26.184Z,1009.97
2018-03-20T00:30:26.149Z,1010.00
2018-03-20T00:31:26.123Z,1010.01
2018-03-20T00:32:26.097Z,1010.00
2018-03-20T00:33:26.069Z,1010.03
2018-03-20T00:34:26.041Z,1010.09
2018-03-20T00:35:26.053Z,1010.08
2018-03-20T00:36:25.989Z,1010.01
2018-03-20T00:37:25.968Z,1010.04
2018-03-20T00:38:25.934Z,1010.05
2018-03-20T00:39:25.922Z,1009.99
2018-03-20T00:40:25.887Z,1010.00
2018-03-20T00:41:25.864Z,1009.95
2018-03-20T00:42:25.827Z,1009.94
2018-03-20T00:43:25.798Z,1009.98
2018-03-20T00:44:25.772Z,1009.92
2018-03-20T00:45:25.746Z,1009.91
2018-03-20T00:46:25.716Z,1009.98
2018-03-20T00:47:25.695Z,1010.01
2018-03-20T00:48:25.664Z,1009.98
2018-03-20T00:49:25.637Z,1009.97
2018-03-20T00:50:25.606Z,1010.03
2018-03-20T00:51:25.581Z,1010.03
2018-03-20T00:52:25.554Z,1010.03
2018-03-20T00:53:25.530Z,1010.06
2018-03-20T00:54:25.501Z,1010.03
2018-03-20T00:55:25.473Z,1010.00
2018-03-20T00:58:10.339Z,1010.07
2018-03-20T00:59:10.313Z,1010.10
2018-03-20T01:00:10.296Z,1010.03
2018-03-20T01:01:10.263Z,1010.02
2018-03-20T01:02:10.235Z,1010.05
2018-03-20T01:03:10.213Z,1010.00
2018-03-20T01:04:10.179Z,1010.03
2018-03-20T01:05:10.278Z,1009.97
2018-03-20T01:06:10.127Z,1010.01
2018-03-20T01:07:10.114Z,1009.98
2018-03-20T01:08:10.079Z,1009.98
2018-03-20T01:09:10.050Z,1009.99
2018-03-20T01:10:10.022Z,1009.95
2018-03-20T01:11:10.007Z,1009.94
2018-03-20T01:12:09.969Z,1009.90
2018-03-20T01:13:09.940Z,1009.90
2018-03-20T01:14:09.913Z,1009.95
2018-03-20T01:15:09.940Z,1009.93
2018-03-20T01:16:09.864Z,1009.91
2018-03-20T01:17:09.838Z,1009.89
2018-03-20T01:18:09.816Z,1009.91
2018-03-20T01:19:09.782Z,1009.95
2018-03-20T01:20:09.757Z,1009.90
2018-03-20T01:21:09.734Z,1009.90
2018-03-20T01:22:09.708Z,1009.86
2018-03-20T01:23:09.685Z,1009.86
2018-03-20T01:24:09.662Z,1009.89
2018-03-20T01:25:09.629Z,1009.89
2018-03-20T01:26:09.599Z,1009.90
2018-03-20T01:27:09.577Z,1009.87
2018-03-20T01:28:09.546Z,1009.84
2018-03-20T01:29:09.525Z,1009.84
2018-03-20T01:30:09.502Z,1009.81
2018-03-20T01:31:09.470Z,1009.75
2018-03-20T01:32:09.459Z,1009.72
2018-03-20T01:33:09.427Z,1009.68
2018-03-20T01:34:09.412Z,1009.73
2018-03-20T01:35:09.370Z,1009.63
2018-03-20T01:36:09.337Z,1009.63
2018-03-20T01:37:09.321Z,1009.66
2018-03-20T01:38:09.287Z,1009.60
2018-03-20T01:39:09.265Z,1009.56
2018-03-20T01:40:09.238Z,1009.52
2018-03-20T01:41:09.207Z,1009.47
2018-03-20T01:42:09.184Z,1009.41
2018-03-20T01:43:09.161Z,1009.35
2018-03-20T01:44:09.127Z,1009.36
2018-03-20T01:45:09.102Z,1009.49
2018-03-20T01:46:09.076Z,1009.51
2018-03-20T01:47:09.054Z,1009.53
2018-03-20T01:48:09.024Z,1009.61
2018-03-20T01:49:08.999Z,1009.62
2018-03-20T01:50:08.975Z,1009.59
2018-03-20T01:51:08.948Z,1009.58
2018-03-20T01:52:08.927Z,1009.56
2018-03-20T01:53:08.894Z,1009.52
2018-03-20T01:54:08.874Z,1009.49
2018-03-20T01:55:08.843Z,1009.51
2018-03-20T01:56:08.825Z,1009.52
2018-03-20T01:57:08.793Z,1009.51
2018-03-20T01:58:08.766Z,1009.56
2018-03-20T01:59:08.743Z,1009.58
2018-03-20T02:00:08.713Z,1009.53
2018-03-20T02:01:08.700Z,1009.53
2018-03-20T02:02:08.670Z,1009.50
2018-03-20T02:03:08.737Z,1009.52
2018-03-20T02:04:08.611Z,1009.51
2018-03-20T02:05:08.585Z,1009.47
2018-03-20T02:06:08.565Z,1009.43
2018-03-20T02:07:08.534Z,1009.46
2018-03-20T02:08:08.506Z,1009.42
2018-03-20T02:09:08.481Z,1009.43
2018-03-20T02:10:08.475Z,1009.40
2018-03-20T02:11:08.432Z,1009.38
2018-03-20T02:12:08.404Z,1009.40
2018-03-20T02:13:08.382Z,1009.36
2018-03-20T02:14:08.359Z,1009.35
2018-03-20T02:15:08.342Z,1009.31
2018-03-20T02:16:08.305Z,1009.28
2018-03-20T02:17:08.276Z,1009.27
2018-03-20T02:18:08.250Z,1009.27
2018-03-20T02:19:08.228Z,1009.23
2018-03-20T02:20:08.199Z,1009.17
2018-03-20T02:21:08.172Z,1009.18
2018-03-20T02:22:08.159Z,1009.20
2018-03-20T02:23:08.123Z,1009.20
2018-03-20T02:24:08.102Z,1009.19
2018-03-20T02:25:08.072Z,1009.24
2018-03-20T02:26:08.044Z,1009.21
2018-03-20T02:27:08.022Z,1009.19
2018-03-20T02:28:08.005Z,1009.09
2018-03-20T02:29:07.968Z,1009.06
2018-03-20T02:30:07.944Z,1009.05
2018-03-20T02:31:07.921Z,1009.01
2018-03-20T02:32:07.941Z,1009.05
2018-03-20T02:33:07.864Z,1009.02
2018-03-20T02:34:07.839Z,1009.03
2018-03-20T02:35:07.854Z,1009.03
2018-03-20T02:36:07.789Z,1009.02
2018-03-20T02:37:07.760Z,1009.05
2018-03-20T02:38:07.738Z,1009.03
2018-03-20T02:39:07.716Z,1009.05
2018-03-20T02:40:07.683Z,1009.04
2018-03-20T02:41:07.659Z,1009.05
2018-03-20T02:42:07.779Z,1008.98
2018-03-20T02:43:07.607Z,1009.02
2018-03-20T02:44:07.588Z,1008.99
2018-03-20T02:45:07.553Z,1008.95
2018-03-20T02:46:07.531Z,1008.95
2018-03-20T02:47:07.501Z,1008.98
2018-03-20T02:48:07.476Z,1008.92
2018-03-20T02:49:07.450Z,1008.95
2018-03-20T02:50:07.425Z,1008.96
2018-03-20T02:51:07.442Z,1008.94
2018-03-20T02:52:07.371Z,1009.01
2018-03-20T02:53:07.350Z,1008.93
2018-03-20T02:54:07.321Z,1008.98
2018-03-20T02:55:07.412Z,1008.96
2018-03-20T02:56:07.277Z,1008.92
2018-03-20T02:57:07.241Z,1008.90
2018-03-20T02:58:07.282Z,1008.96
2018-03-20T02:59:07.191Z,1008.91
2018-03-20T03:00:07.170Z,1008.89
2018-03-20T03:01:07.149Z,1008.90
2018-03-20T03:02:07.116Z,1008.90
2018-03-20T03:03:07.092Z,1008.87
2018-03-20T03:04:07.060Z,1008.89
2018-03-20T03:05:07.036Z,1008.86
2018-03-20T03:06:07.010Z,1008.93
2018-03-20T03:07:06.985Z,1008.89
2018-03-20T03:08:06.958Z,1008.90
2018-03-20T03:09:06.931Z,1008.89
2018-03-20T03:10:06.907Z,1008.84
2018-03-20T03:11:06.892Z,1008.86
2018-03-20T03:12:06.858Z,1008.81
2018-03-20T03:13:06.834Z,1008.82
2018-03-20T03:14:06.812Z,1008.80
2018-03-20T03:15:06.777Z,1008.82
2018-03-20T03:16:06.751Z,1008.81
2018-03-20T03:17:06.750Z,1008.81
2018-03-20T03:18:06.698Z,1008.78
2018-03-20T03:19:06.670Z,1008.77
2018-03-20T03:20:06.653Z,1008.79
2018-03-20T03:21:06.618Z,1008.81
2018-03-20T03:22:06.591Z,1008.78
2018-03-20T03:23:06.567Z,1008.75
2018-03-20T03:24:06.564Z,1008.76
2018-03-20T03:25:06.514Z,1008.72
2018-03-20T03:26:06.486Z,1008.68
2018-03-20T03:27:06.537Z,1008.75
2018-03-20T03:28:06.436Z,1008.72
2018-03-20T03:29:06.410Z,1008.75
2018-03-20T03:30:06.388Z,1008.73
2018-03-20T03:31:06.355Z,1008.77
2018-03-20T03:32:06.330Z,1008.79
2018-03-20T03:33:06.305Z,1008.80
2018-03-20T03:34:06.278Z,1008.81
2018-03-20T03:35:06.253Z,1008.80
2018-03-20T03:36:06.225Z,1008.77
2018-03-20T03:37:06.262Z,1008.77
2018-03-20T03:38:06.176Z,1008.73
2018-03-20T03:39:06.153Z,1008.79
2018-03-20T03:40:06.121Z,1008.75
2018-03-20T03:41:06.095Z,1008.80
2018-03-20T03:42:06.069Z,1008.76
2018-03-20T03:43:06.045Z,1008.80
2018-03-20T03:44:06.031Z,1008.79
2018-03-20T03:45:05.995Z,1008.78
2018-03-20T03:46:05.965Z,1008.76
2018-03-20T03:47:05.978Z,1008.80
2018-03-20T03:48:05.914Z,1008.76
2018-03-20T03:49:05.887Z,1008.79
2018-03-20T03:50:05.862Z,1008.79
2018-03-20T03:51:05.839Z,1008.80
2018-03-20T03:52:05.810Z,1008.77
2018-03-20T03:53:05.784Z,1008.75
2018-03-20T03:54:05.759Z,1008.82
2018-03-20T03:55:05.730Z,1008.87
2018-03-20T03:56:05.709Z,1008.90
2018-03-20T03:57:05.731Z,1008.85
2018-03-20T03:58:05.658Z,1008.87
2018-03-20T03:59:05.633Z,1008.87
2018-03-20T04:00:05.606Z,1008.86
2018-03-20T04:01:05.578Z,1008.88
2018-03-20T04:02:05.550Z,1008.90
2018-03-20T04:03:05.531Z,1008.92
2018-03-20T04:04:05.501Z,1008.88
2018-03-20T04:05:05.478Z,1008.90
2018-03-20T04:06:05.452Z,1008.85
2018-03-20T04:07:05.623Z,1008.81
2018-03-20T04:08:05.396Z,1008.83
2018-03-20T04:09:05.371Z,1008.86
2018-03-20T04:10:05.346Z,1008.85
2018-03-20T04:11:05.322Z,1008.84
2018-03-20T04:12:05.329Z,1008.83
2018-03-20T04:13:05.267Z,1008.84
2018-03-20T04:14:05.258Z,1008.84
2018-03-20T04:15:05.232Z,1008.86
2018-03-20T04:16:05.195Z,1008.83
2018-03-20T04:17:05.173Z,1008.81
2018-03-20T04:18:05.141Z,1008.84
2018-03-20T04:19:05.114Z,1008.79
2018-03-20T04:20:05.091Z,1008.75
2018-03-20T04:21:05.065Z,1008.78
2018-03-20T04:22:05.039Z,1008.77
2018-03-20T04:23:05.039Z,1008.80
2018-03-20T04:24:04.988Z,1008.83
2018-03-20T04:25:04.964Z,1008.82
2018-03-20T04:26:04.937Z,1008.79
2018-03-20T04:27:04.914Z,1008.80
2018-03-20T04:28:04.942Z,1008.86
2018-03-20T04:29:04.864Z,1008.86
2018-03-20T04:30:04.836Z,1008.83
2018-03-20T04:31:04.813Z,1008.85
2018-03-20T04:32:04.786Z,1008.86
2018-03-20T04:33:04.760Z,1008.86
2018-03-20T04:34:04.735Z,1008.84
2018-03-20T04:35:04.707Z,1008.81
2018-03-20T04:36:04.698Z,1008.82
2018-03-20T04:37:04.656Z,1008.84
2018-03-20T04:38:04.636Z,1008.86
2018-03-20T04:39:04.670Z,1008.85
2018-03-20T04:40:04.590Z,1008.90
2018-03-20T04:41:04.558Z,1008.86
2018-03-20T04:42:04.533Z,1008.90
2018-03-20T04:43:04.507Z,1008.89
2018-03-20T04:44:04.482Z,1008.87
2018-03-20T04:45:04.458Z,1008.88
2018-03-20T04:46:04.431Z,1008.94
2018-03-20T04:47:04.405Z,1008.96
2018-03-20T04:48:04.381Z,1008.95
2018-03-20T04:49:04.354Z,1008.92
2018-03-20T04:50:04.331Z,1008.94
2018-03-20T04:51:04.308Z,1008.90
2018-03-20T04:52:04.281Z,1008.90
2018-03-20T04:53:04.255Z,1008.88
2018-03-20T04:54:04.346Z,1008.92
2018-03-20T04:55:04.215Z,1008.91
2018-03-20T04:56:04.174Z,1008.92
2018-03-20T04:57:04.149Z,1008.93
2018-03-20T04:58:04.125Z,1008.89
2018-03-20T04:59:04.101Z,1008.93
2018-03-20T05:00:04.075Z,1008.91
2018-03-20T05:01:04.050Z,1008.91
2018-03-20T05:02:04.153Z,1008.85
2018-03-20T05:03:03.999Z,1008.90
2018-03-20T05:04:03.977Z,1008.88
2018-03-20T05:05:04.056Z,1008.93
2018-03-20T05:06:03.921Z,1008.92
2018-03-20T05:07:03.899Z,1008.84
2018-03-20T05:08:03.872Z,1008.91
2018-03-20T05:09:03.849Z,1008.89
2018-03-20T05:10:03.824Z,1008.91
2018-03-20T05:11:03.798Z,1008.93
2018-03-20T05:12:03.774Z,1008.93
2018-03-20T05:13:03.745Z,1008.91
2018-03-20T05:14:03.718Z,1008.94
2018-03-20T05:15:03.698Z,1008.92
2018-03-20T05:16:03.667Z,1008.91
2018-03-20T05:17:03.648Z,1008.94
2018-03-20T05:18:03.620Z,1009.00
2018-03-20T05:19:03.593Z,1008.96
2018-03-20T05:20:03.568Z,1008.97
2018-03-20T05:21:03.540Z,1008.96
2018-03-20T05:22:03.518Z,1009.00
2018-03-20T05:23:03.492Z,1008.97
2018-03-20T05:24:03.570Z,1009.00
2018-03-20T05:25:03.443Z,1009.00
2018-03-20T05:26:03.413Z,1008.99
2018-03-20T05:27:03.389Z,1008.97
2018-03-20T05:28:03.367Z,1008.96
2018-03-20T05:29:03.336Z,1009.00
2018-03-20T05:30:03.314Z,1008.97
2018-03-20T05:31:03.291Z,1008.98
2018-03-20T05:32:03.266Z,1009.05
2018-03-20T05:33:03.236Z,1009.05
2018-03-20T05:34:03.210Z,1009.06
2018-03-20T05:35:03.192Z,1008.99
2018-03-20T05:36:03.160Z,1008.99
2018-03-20T05:37:03.140Z,1008.98
2018-03-20T05:38:03.107Z,1009.00
2018-03-20T05:39:03.085Z,1008.93
2018-03-20T05:40:03.060Z,1008.96
2018-03-20T05:41:03.035Z,1008.93
2018-03-20T05:42:03.008Z,1008.96
2018-03-20T05:43:02.984Z,1008.93
2018-03-20T05:44:02.969Z,1008.93
2018-03-20T05:45:02.939Z,1008.95
2018-03-20T05:46:03.020Z,1008.95
2018-03-20T05:47:02.884Z,1008.94
2018-03-20T05:48:02.860Z,1008.96
2018-03-20T05:49:02.841Z,1008.92
2018-03-20T05:50:02.809Z,1008.92
2018-03-20T05:51:02.783Z,1008.92
2018-03-20T05:52:02.758Z,1008.92
2018-03-20T05:53:02.732Z,1008.94
2018-03-20T05:54:02.705Z,1008.98
2018-03-20T05:55:02.688Z,1009.01
2018-03-20T05:56:02.655Z,1009.12
2018-03-20T05:57:02.637Z,1009.08
2018-03-20T05:58:02.610Z,1009.10
2018-03-20T05:59:02.606Z,1009.14
2018-03-20T06:00:02.565Z,1009.12
2018-03-20T06:01:02.532Z,1009.15
2018-03-20T06:02:02.556Z,1009.14
2018-03-20T06:03:02.481Z,1009.17
2018-03-20T06:04:02.456Z,1009.18
2018-03-20T06:05:02.483Z,1009.18
2018-03-20T06:06:02.406Z,1009.12
2018-03-20T06:07:02.381Z,1009.12
2018-03-20T06:08:02.369Z,1009.10
2018-03-20T06:09:02.330Z,1009.13
2018-03-20T06:10:02.313Z,1009.08
2018-03-20T06:11:02.283Z,1009.13
2018-03-20T06:12:02.258Z,1009.17
2018-03-20T06:13:02.235Z,1009.19
2018-03-20T06:14:02.216Z,1009.24
2018-03-20T06:15:02.195Z,1009.24
2018-03-20T06:16:02.166Z,1009.28
2018-03-20T06:17:02.135Z,1009.28
2018-03-20T06:18:02.108Z,1009.22
2018-03-20T06:19:02.091Z,1009.23
2018-03-20T06:20:02.060Z,1009.21
2018-03-20T06:21:02.031Z,1009.23
2018-03-20T06:22:02.183Z,1009.23
2018-03-20T06:23:01.984Z,1009.26
2018-03-20T06:24:01.964Z,1009.18
2018-03-20T06:25:01.932Z,1009.22
2018-03-20T06:26:01.916Z,1009.25
2018-03-20T06:27:01.882Z,1009.21
2018-03-20T06:28:01.857Z,1009.26
2018-03-20T06:29:01.833Z,1009.30
2018-03-20T06:30:01.818Z,1009.33
2018-03-20T06:31:01.783Z,1009.41
2018-03-20T06:32:01.762Z,1009.43
2018-03-20T06:33:01.737Z,1009.41
2018-03-20T06:34:01.709Z,1009.49
2018-03-20T06:35:01.682Z,1009.48
2018-03-20T06:36:01.658Z,1009.52
2018-03-20T06:37:01.635Z,1009.50
2018-03-20T06:38:01.617Z,1009.51
2018-03-20T06:39:01.582Z,1009.53
2018-03-20T06:40:01.561Z,1009.55
2018-03-20T06:41:01.537Z,1009.59
2018-03-20T06:42:01.513Z,1009.54
2018-03-20T06:43:01.485Z,1009.60
2018-03-20T06:44:01.459Z,1009.58
2018-03-20T06:45:01.436Z,1009.62
2018-03-20T06:46:01.409Z,1009.54
2018-03-20T06:47:01.389Z,1009.61
2018-03-20T06:48:01.365Z,1009.64
2018-03-20T06:49:01.355Z,1009.64
2018-03-20T06:50:01.321Z,1009.71
2018-03-20T06:51:01.302Z,1009.71
2018-03-20T06:52:01.271Z,1009.68
2018-03-20T06:53:01.237Z,1009.77
2018-03-20T06:54:01.216Z,1009.77
2018-03-20T06:55:01.189Z,1009.80
2018-03-20T06:56:01.166Z,1009.86
2018-03-20T06:57:01.138Z,1009.82
2018-03-20T06:58:01.118Z,1009.84
2018-03-20T06:59:01.112Z,1009.93
2018-03-20T07:00:01.104Z,1009.92
2018-03-20T07:01:01.041Z,1009.90
2018-03-20T07:02:01.015Z,1009.95
2018-03-20T07:03:00.990Z,1009.96
2018-03-20T07:04:00.966Z,1010.02
2018-03-20T07:05:00.939Z,1009.93
2018-03-20T07:06:00.916Z,1010.03
2018-03-20T07:07:00.898Z,1010.05
2018-03-20T07:08:00.865Z,1010.00
2018-03-20T07:09:00.851Z,1010.00
2018-03-20T07:10:00.817Z,1010.11
2018-03-20T07:11:00.841Z,1010.10
2018-03-20T07:12:00.768Z,1010.15
2018-03-20T07:13:00.743Z,1010.10
2018-03-20T07:14:00.761Z,1010.12
2018-03-20T07:15:00.704Z,1010.15
2018-03-20T07:16:00.671Z,1010.20
2018-03-20T07:17:00.645Z,1010.16
2018-03-20T07:18:00.627Z,1010.25
2018-03-20T07:19:00.595Z,1010.29
2018-03-20T07:20:00.572Z,1010.22
2018-03-20T07:21:00.546Z,1010.34
2018-03-20T07:22:00.531Z,1010.34
2018-03-20T07:23:00.501Z,1010.39
2018-03-20T07:24:00.474Z,1010.41
2018-03-20T07:25:00.451Z,1010.44
2018-03-20T07:26:00.450Z,1010.42
2018-03-20T07:27:00.405Z,1010.44
2018-03-20T07:28:00.377Z,1010.49
2018-03-20T07:29:00.351Z,1010.46
2018-03-20T07:30:00.333Z,1010.54
2018-03-20T07:31:00.301Z,1010.55
2018-03-20T07:32:00.278Z,1010.58
2018-03-20T07:33:00.300Z,1010.59
2018-03-20T07:34:00.239Z,1010.64
2018-03-20T07:35:00.206Z,1010.68
2018-03-20T07:36:00.183Z,1010.70
2018-03-20T07:37:00.157Z,1010.72
2018-03-20T07:38:00.141Z,1010.74
2018-03-20T07:39:00.110Z,1010.78
2018-03-20T07:40:00.092Z,1010.82
2018-03-20T07:41:00.061Z,1010.82
2018-03-20T07:42:00.040Z,1010.85
2018-03-20T07:43:00.017Z,1010.85
2018-03-20T07:43:59.989Z,1010.92
2018-03-20T07:44:59.964Z,1010.82
2018-03-20T07:45:59.942Z,1010.88
2018-03-20T07:46:59.919Z,1010.83
2018-03-20T07:47:59.907Z,1010.83
2018-03-20T07:48:59.873Z,1010.91
2018-03-20T07:49:59.848Z,1010.87
2018-03-20T07:50:59.824Z,1010.81
2018-03-20T07:51:59.799Z,1010.99
2018-03-20T07:52:59.780Z,1010.95
2018-03-20T07:53:59.754Z,1011.02
2018-03-20T07:54:59.751Z,1011.06
2018-03-20T07:55:59.709Z,1011.05
2018-03-20T07:56:59.681Z,1011.09
2018-03-20T07:57:59.668Z,1011.00
2018-03-20T07:58:59.642Z,1011.10
2018-03-20T07:59:59.612Z,1010.97
2018-03-20T08:00:59.590Z,1011.06
2018-03-20T08:01:59.577Z,1010.99
2018-03-20T08:02:59.541Z,1011.01
2018-03-20T08:03:59.530Z,1011.02
2018-03-20T08:04:59.519Z,1011.04
2018-03-20T08:05:59.475Z,1011.08
2018-03-20T08:06:59.455Z,1011.02
2018-03-20T08:07:59.431Z,1011.08
2018-03-20T08:08:59.407Z,1011.07
2018-03-20T08:09:59.384Z,1011.14
2018-03-20T08:10:59.369Z,1011.25
2018-03-20T08:11:59.340Z,1011.26
2018-03-20T08:12:59.315Z,1011.33
2018-03-20T08:13:59.288Z,1011.34
2018-03-20T08:14:59.362Z,1011.30
2018-03-20T08:15:59.248Z,1011.35
2018-03-20T08:16:59.222Z,1011.40
2018-03-20T08:17:59.202Z,1011.49
2018-03-20T08:18:59.181Z,1011.57
2018-03-20T08:19:59.174Z,1011.55
2018-03-20T08:20:59.135Z,1011.51
2018-03-20T08:21:59.114Z,1011.53
2018-03-20T08:22:59.094Z,1011.64
2018-03-20T08:23:59.069Z,1011.62
2018-03-20T08:24:59.050Z,1011.54
2018-03-20T08:25:59.028Z,1011.68
2018-03-20T08:26:59.009Z,1011.71
2018-03-20T08:27:59.082Z,1011.68
2018-03-20T08:28:58.973Z,1011.84
2018-03-20T08:29:58.954Z,1011.89
2018-03-20T08:30:59.034Z,1011.85
2018-03-20T08:31:58.914Z,1011.82
2018-03-20T08:32:58.896Z,1011.83
2018-03-20T08:33:58.875Z,1011.95
2018-03-20T08:34:58.854Z,1012.00
2018-03-20T08:35:58.835Z,1012.07
2018-03-20T08:36:58.814Z,1012.04
2018-03-20T08:37:58.803Z,1012.11
2018-03-20T08:38:58.792Z,1012.20
2018-03-20T08:39:58.763Z,1012.12
2018-03-20T08:40:58.742Z,1012.15
2018-03-20T08:41:58.726Z,1012.16
2018-03-20T08:42:58.715Z,1012.28
2018-03-20T08:43:58.692Z,1012.23
2018-03-20T08:44:58.674Z,1012.30
2018-03-20T08:45:58.655Z,1012.30
2018-03-20T08:46:58.636Z,1012.30
2018-03-20T08:47:58.630Z,1012.28
2018-03-20T08:48:58.607Z,1012.39
2018-03-20T08:49:58.645Z,1012.31
2018-03-20T08:50:58.583Z,1012.28
2018-03-20T08:51:58.566Z,1012.32
2018-03-20T08:52:58.550Z,1012.52
2018-03-20T08:53:58.531Z,1012.33
2018-03-20T08:54:58.520Z,1012.28
2018-03-20T08:55:58.501Z,1012.41
2018-03-20T08:56:58.488Z,1012.50
2018-03-20T08:57:58.475Z,1012.54
2018-03-20T08:58:58.457Z,1012.52
2018-03-20T08:59:58.442Z,1012.61
2018-03-20T09:00:58.446Z,1012.58
2018-03-20T09:01:58.416Z,1012.61
2018-03-20T09:02:58.410Z,1012.65
2018-03-20T09:03:58.389Z,1012.68
2018-03-20T09:04:58.374Z,1012.64
2018-03-20T09:05:58.366Z,1012.65
2018-03-20T09:06:58.349Z,1012.75
2018-03-20T09:07:58.342Z,1012.83
2018-03-20T09:08:58.324Z,1012.75
2018-03-20T09:09:58.310Z,1012.82
2018-03-20T09:10:58.312Z,1012.88
2018-03-20T09:11:58.284Z,1012.91
2018-03-20T09:12:58.272Z,1012.93
2018-03-20T09:13:58.258Z,1012.97
2018-03-20T09:14:58.257Z,1012.99
2018-03-20T09:15:58.243Z,1012.86
2018-03-20T09:16:58.223Z,1012.97
2018-03-20T09:17:58.257Z,1013.03
2018-03-20T09:18:58.198Z,1013.04
2018-03-20T09:19:58.187Z,1013.15
2018-03-20T09:20:58.178Z,1013.05
2018-03-20T09:21:58.169Z,1013.07
2018-03-20T09:22:58.163Z,1013.08
2018-03-20T09:23:58.165Z,1013.16
2018-03-20T09:24:58.133Z,1013.14
2018-03-20T09:25:58.128Z,1013.20
2018-03-20T09:26:58.167Z,1013.16
2018-03-20T09:27:58.101Z,1013.14
2018-03-20T09:28:58.090Z,1013.14
2018-03-20T09:29:58.079Z,1013.22
2018-03-20T09:30:58.079Z,1013.24
2018-03-20T09:31:58.067Z,1013.29
2018-03-20T09:32:58.050Z,1013.27
2018-03-20T09:33:58.073Z,1013.31
2018-03-20T09:34:58.037Z,1013.41
2018-03-20T09:35:58.026Z,1013.38
2018-03-20T09:36:58.020Z,1013.33
2018-03-20T09:37:58.007Z,1013.37
2018-03-20T09:38:57.995Z,1013.39
2018-03-20T09:39:57.994Z,1013.39
2018-03-20T09:40:58.052Z,1013.36
2018-03-20T09:41:57.982Z,1013.42
2018-03-20T09:42:57.958Z,1013.49
2018-03-20T09:43:57.957Z,1013.47
2018-03-20T09:44:57.938Z,1013.52
2018-03-20T09:45:57.928Z,1013.47
2018-03-20T09:46:57.924Z,1013.44
2018-03-20T09:47:57.927Z,1013.46
2018-03-20T09:48:57.936Z,1013.46
2018-03-20T09:49:57.894Z,1013.50
2018-03-20T09:50:57.886Z,1013.48
2018-03-20T09:51:57.877Z,1013.60
2018-03-20T09:52:57.867Z,1013.56
2018-03-20T09:53:57.889Z,1013.53
2018-03-20T09:54:57.853Z,1013.57
2018-03-20T09:55:57.845Z,1013.63
2018-03-20T09:56:57.837Z,1013.66
2018-03-20T09:57:57.827Z,1013.71
2018-03-20T09:58:57.824Z,1013.62
2018-03-20T09:59:57.811Z,1013.63
2018-03-20T10:00:57.804Z,1013.60
2018-03-20T10:01:57.792Z,1013.65
2018-03-20T10:02:57.782Z,1013.57
2018-03-20T10:03:57.785Z,1013.63
2018-03-20T10:04:57.781Z,1013.65
2018-03-20T10:05:57.760Z,1013.68
2018-03-20T10:06:57.799Z,1013.59
2018-03-20T10:07:57.741Z,1013.59
2018-03-20T10:08:57.732Z,1013.53
2018-03-20T10:09:57.759Z,1013.45
2018-03-20T10:10:57.712Z,1013.39
2018-03-20T10:11:57.706Z,1013.50
2018-03-20T10:12:57.696Z,1013.50
2018-03-20T10:13:57.695Z,1013.52
2018-03-20T10:14:57.691Z,1013.52
2018-03-20T10:15:57.674Z,1013.50
2018-03-20T10:16:57.660Z,1013.56
2018-03-20T10:17:57.651Z,1013.56
2018-03-20T10:18:57.647Z,1013.53
2018-03-20T10:19:57.632Z,1013.54
2018-03-20T10:20:57.624Z,1013.63
2018-03-20T10:21:57.621Z,1013.57
2018-03-20T10:22:57.701Z,1013.57
2018-03-20T10:23:57.600Z,1013.59
2018-03-20T10:24:57.628Z,1013.65
2018-03-20T10:25:57.580Z,1013.54
2018-03-20T10:26:57.572Z,1013.64
2018-03-20T10:27:57.563Z,1013.63
2018-03-20T10:28:57.556Z,1013.68
2018-03-20T10:29:57.543Z,1013.72
2018-03-20T10:30:57.542Z,1013.69
2018-03-20T10:31:57.531Z,1013.69
2018-03-20T10:32:57.521Z,1013.74
2018-03-20T10:33:57.526Z,1013.66
2018-03-20T10:34:57.502Z,1013.61
2018-03-20T10:35:57.496Z,1013.66
2018-03-20T10:36:57.483Z,1013.72
2018-03-20T10:37:57.473Z,1013.59
2018-03-20T10:38:57.474Z,1013.70
2018-03-20T10:39:57.456Z,1013.67
2018-03-20T10:40:57.453Z,1013.74
2018-03-20T10:41:57.444Z,1013.77
2018-03-20T10:42:57.431Z,1013.79
2018-03-20T10:43:57.428Z,1013.78
2018-03-20T10:44:57.418Z,1013.84
2018-03-20T10:45:57.422Z,1013.74
2018-03-20T10:46:57.391Z,1013.84
2018-03-20T10:47:57.388Z,1013.83
2018-03-20T10:48:57.413Z,1013.88
2018-03-20T10:49:57.370Z,1014.04
2018-03-20T10:50:57.359Z,1014.13
2018-03-20T10:51:57.362Z,1014.22
2018-03-20T10:52:57.340Z,1014.32
2018-03-20T10:53:57.374Z,1014.41
2018-03-20T10:54:57.321Z,1014.40
2018-03-20T10:55:57.312Z,1014.40
2018-03-20T10:56:57.314Z,1014.49
2018-03-20T10:57:57.297Z,1014.55
2018-03-20T10:58:57.294Z,1014.54
2018-03-20T10:59:57.279Z,1014.62
2018-03-20T11:00:57.272Z,1014.71
2018-03-20T11:01:57.259Z,1014.62
2018-03-20T11:02:57.256Z,1014.61
2018-03-20T11:03:57.245Z,1014.54
2018-03-20T11:04:57.235Z,1014.59
2018-03-20T11:05:57.229Z,1014.59
2018-03-20T11:06:57.218Z,1014.66
2018-03-20T11:07:57.205Z,1014.56
2018-03-20T11:08:57.196Z,1014.62
2018-03-20T11:09:57.189Z,1014.82
2018-03-20T11:10:57.180Z,1014.68
2018-03-20T11:11:57.174Z,1014.76
2018-03-20T11:12:57.266Z,1014.78
2018-03-20T11:13:57.155Z,1014.83
2018-03-20T11:14:57.169Z,1014.80
2018-03-20T11:15:57.138Z,1014.86
2018-03-20T11:16:57.124Z,1014.78
2018-03-20T11:17:57.123Z,1014.74
2018-03-20T11:18:57.108Z,1014.82
2018-03-20T11:19:57.098Z,1014.78
2018-03-20T11:20:57.088Z,1014.78
2018-03-20T11:21:57.086Z,1014.81
2018-03-20T11:22:57.070Z,1014.91
2018-03-20T11:23:57.063Z,1014.79
2018-03-20T11:24:57.051Z,1014.97
2018-03-20T11:25:57.042Z,1015.00
2018-03-20T11:26:57.032Z,1015.15
2018-03-20T11:27:57.025Z,1015.23
2018-03-20T11:28:57.028Z,1015.18
2018-03-20T11:29:57.042Z,1015.28
2018-03-20T11:30:56.994Z,1015.30
2018-03-20T11:31:56.986Z,1015.30
2018-03-20T11:32:56.981Z,1015.40
2018-03-20T11:33:57.112Z,1015.47
2018-03-20T11:34:56.971Z,1015.55
2018-03-20T11:35:56.964Z,1015.66
2018-03-20T11:36:57.042Z,1015.83
2018-03-20T11:37:56.935Z,1015.93
2018-03-20T11:38:56.928Z,1015.98
2018-03-20T11:39:56.920Z,1016.07
2018-03-20T11:40:56.903Z,1015.92
2018-03-20T11:41:56.893Z,1015.90
2018-03-20T11:42:56.882Z,1015.90
2018-03-20T11:43:56.905Z,1015.93
2018-03-20T11:44:56.864Z,1015.78
2018-03-20T11:45:56.852Z,1015.75
2018-03-20T11:46:56.858Z,1015.67
2018-03-20T11:47:56.835Z,1015.64
2018-03-20T11:48:56.822Z,1015.64
2018-03-20T11:49:56.837Z,1015.48
2018-03-20T11:50:56.800Z,1015.25
2018-03-20T11:51:56.792Z,1015.27
2018-03-20T11:52:56.779Z,1015.30
2018-03-20T11:53:56.768Z,1015.09
2018-03-20T11:54:56.764Z,1015.02
2018-03-20T11:55:56.756Z,1014.95
2018-03-20T11:56:56.733Z,1014.87
2018-03-20T11:57:56.720Z,1014.87
2018-03-20T11:58:56.709Z,1014.81
2018-03-20T11:59:56.699Z,1014.96
2018-03-20T12:00:56.695Z,1014.88
2018-03-20T12:01:56.680Z,1014.76
2018-03-20T12:02:56.722Z,1014.67
2018-03-20T12:03:56.652Z,1014.57
2018-03-20T12:04:56.640Z,1014.53
2018-03-20T12:05:56.729Z,1014.52
2018-03-20T12:06:56.609Z,1014.56